• Join FlightAware (Why Join?)
  • Login
  • US Flag 
09:41AM EST


 

Airport Tracker/Info


-or-


 

Live Flight TrackerFlight Track Log ✈ AFL150 ✈ 16-Mar-2014 ✈ UUEE / SVO - MUHA / HAV

Flight Track Log - Related Links

Times and Time Zones

All times are in EDT time to prevent confusion due to time zone crossing. See the AFL150 flight status page for this flight to view local times or setup timezone preferences in your user account.

Time Position Orientation Groundspeed Altitude Reporting Facility
EDT Latitude Longitude Course Direction KTS MPH feet Rate Location/Type
05:41AM 56.2208 36.9692 319° Northwest  Level FlightAware Approximate
05:42AM 56.3044 36.8347 318° Northwest  Level FlightAware Approximate
05:43AM 56.3877 36.6996 318° Northwest  Level FlightAware Approximate
05:44AM 56.4710 36.5640 318° Northwest  Level FlightAware Approximate
05:45AM 56.5541 36.4277 318° Northwest  Level FlightAware Approximate
05:46AM 56.6371 36.2908 318° Northwest  Level FlightAware Approximate
05:47AM 56.7199 36.1534 318° Northwest  Level FlightAware Approximate
05:48AM 56.8025 36.0153 318° Northwest  Level FlightAware Approximate
05:49AM 56.8850 35.8766 317° Northwest  Level FlightAware Approximate
05:50AM 56.9674 35.7373 317° Northwest  Level FlightAware Approximate
05:51AM 57.0495 35.5974 317° Northwest  Level FlightAware Approximate
05:52AM 57.1316 35.4569 317° Northwest  Level FlightAware Approximate
05:53AM 57.2135 35.3158 317° Northwest  Level FlightAware Approximate
05:54AM 57.2952 35.1740 317° Northwest  Level FlightAware Approximate
05:55AM 57.3767 35.0316 317° Northwest  Level FlightAware Approximate
05:56AM 57.4581 34.8885 317° Northwest  Level FlightAware Approximate
05:57AM 57.5393 34.7449 317° Northwest  Level FlightAware Approximate
05:58AM 57.6204 34.6005 316° Northwest  Level FlightAware Approximate
05:59AM 57.6292 34.5760 313° West  Level FlightAware Approximate
06:00AM 57.7060 34.4234 313° West  Level FlightAware Approximate
06:01AM 57.7826 34.2702 313° West  Level FlightAware Approximate
06:02AM 57.8590 34.1162 313° West  Level FlightAware Approximate
06:03AM 57.9352 33.9617 313° West  Level FlightAware Approximate
06:04AM 58.0113 33.8065 313° West  Level FlightAware Approximate
06:05AM 58.0871 33.6506 313° West  Level FlightAware Approximate
06:06AM 58.1628 33.4940 313° West  Level FlightAware Approximate
06:07AM 58.2389 33.3379 313° West  Level FlightAware Approximate
06:08AM 58.3153 33.1821 313° West  Level FlightAware Approximate
06:09AM 58.3916 33.0256 313° West  Level FlightAware Approximate
06:10AM 58.4677 32.8684 313° West  Level FlightAware Approximate
06:11AM 58.5436 32.7106 313° West  Level FlightAware Approximate
06:12AM 58.6193 32.5520 313° West  Level FlightAware Approximate
06:13AM 58.6947 32.3928 312° West  Level FlightAware Approximate
06:14AM 58.7700 32.2329 312° West  Level FlightAware Approximate
06:15AM 58.8449 32.0718 312° West  Level FlightAware Approximate
06:16AM 58.9190 31.9093 312° West  Level FlightAware Approximate
06:17AM 58.9930 31.7460 311° West  Level FlightAware Approximate
06:18AM 59.0667 31.5820 311° West  Level FlightAware Approximate
06:19AM 59.1403 31.4173 311° West  Level FlightAware Approximate
06:20AM 59.2136 31.2519 311° West  Level FlightAware Approximate
06:21AM 59.2867 31.0858 311° West  Level FlightAware Approximate
06:22AM 59.3596 30.9190 311° West  Level FlightAware Approximate
06:23AM 59.4323 30.7515 311° West  Level FlightAware Approximate
06:24AM 59.5048 30.5832 310° West  Level FlightAware Approximate
06:25AM 59.5770 30.4143 310° West  Level FlightAware Approximate
06:26AM 59.6491 30.2446 310° West  Level FlightAware Approximate
06:27AM 59.7209 30.0741 310° West  Level FlightAware Approximate
06:28AM 59.7925 29.9030 310° West  Level FlightAware Approximate
06:29AM 59.8639 29.7311 310° West  Level FlightAware Approximate
06:30AM 59.9350 29.5584 309° West  Level FlightAware Approximate
06:31AM 60.0060 29.3851 309° West  Level FlightAware Approximate
06:32AM 60.0766 29.2109 309° West  Level FlightAware Approximate
06:33AM 60.1471 29.0361 309° West  Level FlightAware Approximate
06:34AM 60.2174 28.8605 309° West  Level FlightAware Approximate
06:35AM 60.2873 28.6841 309° West  Level FlightAware Approximate
06:36AM 60.3571 28.5070 309° West  Level FlightAware Approximate
06:37AM 60.4267 28.3291 308° West  Level FlightAware Approximate
06:38AM 60.4959 28.1504 308° West  Level FlightAware Approximate
06:39AM 60.5650 27.9710 308° West  Level FlightAware Approximate
06:40AM 60.6340 27.7911 308° West  Level FlightAware Approximate
06:41AM 60.7027 27.6104 308° West  Level FlightAware Approximate
06:42AM 60.7712 27.4289 308° West  Level FlightAware Approximate
06:43AM 60.8394 27.2467 308° West  Level FlightAware Approximate
06:44AM 60.9074 27.0637 307° West  Level FlightAware Approximate
06:45AM 60.9752 26.8799 307° West  Level FlightAware Approximate
06:46AM 61.0426 26.6953 307° West  Level FlightAware Approximate
06:47AM 61.1099 26.5099 307° West  Level FlightAware Approximate
06:48AM 61.1768 26.3237 307° West  Level FlightAware Approximate
06:49AM 61.2436 26.1368 307° West  Level FlightAware Approximate
06:50AM 61.3101 25.9491 306° West  Level FlightAware Approximate
06:51AM 61.3763 25.7605 306° West  Level FlightAware Approximate
06:52AM 61.4422 25.5712 306° West  Level FlightAware Approximate
06:53AM 61.5079 25.3810 306° West  Level FlightAware Approximate
06:54AM 61.5733 25.1901 306° West  Level FlightAware Approximate
06:55AM 61.6384 24.9984 306° West  Level FlightAware Approximate
06:56AM 61.7033 24.8058 305° West  Level FlightAware Approximate
06:57AM 61.7679 24.6124 305° West  Level FlightAware Approximate
06:58AM 61.8323 24.4182 305° West  Level FlightAware Approximate
06:59AM 61.8963 24.2232 305° West  Level FlightAware Approximate
07:00AM 61.9601 24.0274 305° West  Level FlightAware Approximate
07:01AM 62.0236 23.8308 305° West  Level FlightAware Approximate
07:02AM 62.0868 23.6334 304° West  Level FlightAware Approximate
07:03AM 62.1498 23.4351 304° West  Level FlightAware Approximate
07:04AM 62.2124 23.2360 304° West  Level FlightAware Approximate
07:05AM 62.2748 23.0361 304° West  Level FlightAware Approximate
07:06AM 62.3369 22.8353 304° West  Level FlightAware Approximate
07:07AM 62.3987 22.6338 304° West  Level FlightAware Approximate
07:08AM 62.4602 22.4313 303° West  Level FlightAware Approximate
07:09AM 62.5214 22.2281 303° West  Level FlightAware Approximate
07:10AM 62.5823 22.0240 303° West  Level FlightAware Approximate
07:11AM 62.6429 21.8191 303° West  Level FlightAware Approximate
07:12AM 62.7032 21.6134 303° West  Level FlightAware Approximate
07:13AM 62.7632 21.4068 302° West  Level FlightAware Approximate
07:14AM 62.8229 21.1993 302° West  Level FlightAware Approximate
07:15AM 62.8823 20.9911 302° West  Level FlightAware Approximate
07:16AM 62.9414 20.7819 302° West  Level FlightAware Approximate
07:17AM 63.0002 20.5720 302° West  Level FlightAware Approximate
07:18AM 63.0586 20.3612 302° West  Level FlightAware Approximate
07:19AM 63.1168 20.1495 301° West  Level FlightAware Approximate
07:20AM 63.1746 19.9370 301° West  Level FlightAware Approximate
07:21AM 63.2321 19.7237 301° West  Level FlightAware Approximate
07:22AM 63.2893 19.5095 301° West  Level FlightAware Approximate
07:23AM 63.3462 19.2945 301° West  Level FlightAware Approximate
07:24AM 63.4027 19.0786 300° West  Level FlightAware Approximate
07:25AM 63.4590 18.8618 300° West  Level FlightAware Approximate
07:26AM 63.5148 18.6443 300° West  Level FlightAware Approximate
07:27AM 63.5704 18.4258 300° West  Level FlightAware Approximate
07:28AM 63.6256 18.2065 300° West  Level FlightAware Approximate
07:29AM 63.6805 17.9864 299° West  Level FlightAware Approximate
07:30AM 63.7351 17.7654 299° West  Level FlightAware Approximate
07:31AM 63.7893 17.5435 299° West  Level FlightAware Approximate
07:32AM 63.8432 17.3208 299° West  Level FlightAware Approximate
07:33AM 63.8967 17.0973 299° West  Level FlightAware Approximate
07:34AM 63.9499 16.8729 298° West  Level FlightAware Approximate
07:35AM 64.0027 16.6476 298° West  Level FlightAware Approximate
07:36AM 64.0552 16.4215 298° West  Level FlightAware Approximate
07:37AM 64.1073 16.1945 298° West  Level FlightAware Approximate
07:38AM 64.1591 15.9667 298° West  Level FlightAware Approximate
07:39AM 64.2105 15.7381 297° West  Level FlightAware Approximate
07:40AM 64.2616 15.5086 297° West  Level FlightAware Approximate
07:41AM 64.3123 15.2782 297° West  Level FlightAware Approximate
07:42AM 64.3626 15.0470 297° West  Level FlightAware Approximate
07:43AM 64.4126 14.8150 297° West  Level FlightAware Approximate
07:44AM 64.4622 14.5821 296° West  Level FlightAware Approximate
07:45AM 64.5114 14.3484 296° West  Level FlightAware Approximate
07:46AM 64.5603 14.1138 296° West  Level FlightAware Approximate
07:47AM 64.6088 13.8784 296° West  Level FlightAware Approximate
07:48AM 64.6569 13.6422 296° West  Level FlightAware Approximate
07:49AM 64.7046 13.4051 295° West  Level FlightAware Approximate
07:50AM 64.7520 13.1672 295° West  Level FlightAware Approximate
07:51AM 64.7989 12.9284 295° West  Level FlightAware Approximate
07:52AM 64.8455 12.6889 295° West  Level FlightAware Approximate
07:53AM 64.8917 12.4485 294° West  Level FlightAware Approximate
07:54AM 64.9375 12.2072 294° West  Level FlightAware Approximate
07:55AM 64.9830 11.9652 294° West  Level FlightAware Approximate
07:56AM 65.0280 11.7223 294° West  Level FlightAware Approximate
07:57AM 65.0726 11.4786 294° West  Level FlightAware Approximate
07:58AM 65.1169 11.2341 293° West  Level FlightAware Approximate
07:59AM 65.1607 10.9888 293° West  Level FlightAware Approximate
08:00AM 65.2041 10.7427 293° West  Level FlightAware Approximate
08:01AM 65.2471 10.4957 293° West  Level FlightAware Approximate
08:02AM 65.2898 10.2480 292° West  Level FlightAware Approximate
08:03AM 65.3320 9.9995 292° West  Level FlightAware Approximate
08:04AM 65.3738 9.7501 292° West  Level FlightAware Approximate
08:05AM 65.4152 9.5000 292° West  Level FlightAware Approximate
08:06AM 65.4562 9.2491 292° West  Level FlightAware Approximate
08:07AM 65.4967 8.9974 291° West  Level FlightAware Approximate
08:08AM 65.5369 8.7450 291° West  Level FlightAware Approximate
08:09AM 65.5766 8.4917 291° West  Level FlightAware Approximate
08:10AM 65.6159 8.2377 291° West  Level FlightAware Approximate
08:11AM 65.6548 7.9830 290° West  Level FlightAware Approximate
08:12AM 65.6932 7.7274 290° West  Level FlightAware Approximate
08:13AM 65.7312 7.4711 290° West  Level FlightAware Approximate
08:14AM 65.7688 7.2141 290° West  Level FlightAware Approximate
08:15AM 65.8060 6.9563 289° West  Level FlightAware Approximate
08:16AM 65.8427 6.6978 289° West  Level FlightAware Approximate
08:17AM 65.8790 6.4385 289° West  Level FlightAware Approximate
08:18AM 65.9148 6.1785 289° West  Level FlightAware Approximate
08:19AM 65.9502 5.9178 289° West  Level FlightAware Approximate
08:20AM 65.9852 5.6563 288° West  Level FlightAware Approximate
08:21AM 66.0197 5.3942 288° West  Level FlightAware Approximate
08:22AM 66.0538 5.1313 288° West  Level FlightAware Approximate
08:23AM 66.0874 4.8678 288° West  Level FlightAware Approximate
08:24AM 66.1206 4.6035 287° West  Level FlightAware Approximate
08:25AM 66.1533 4.3386 287° West  Level FlightAware Approximate
08:26AM 66.1856 4.0729 287° West  Level FlightAware Approximate
08:27AM 66.2174 3.8067 287° West  Level FlightAware Approximate
08:28AM 66.2487 3.5397 286° West  Level FlightAware Approximate
08:29AM 66.2796 3.2721 286° West  Level FlightAware Approximate
08:30AM 66.3101 3.0038 286° West  Level FlightAware Approximate
08:31AM 66.3400 2.7349 286° West  Level FlightAware Approximate
08:32AM 66.3695 2.4653 285° West  Level FlightAware Approximate
08:33AM 66.3986 2.1951 285° West  Level FlightAware Approximate
08:34AM 66.4271 1.9243 285° West  Level FlightAware Approximate
08:35AM 66.4552 1.6529 285° West  Level FlightAware Approximate
08:36AM 66.4829 1.3809 284° West  Level FlightAware Approximate
08:37AM 66.5100 1.1082 284° West  Level FlightAware Approximate
08:38AM 66.5367 0.8350 284° West  Level FlightAware Approximate
08:39AM 66.5629 0.5612 284° West  Level FlightAware Approximate
08:40AM 66.5886 0.2869 283° West  Level FlightAware Approximate
08:41AM 66.6139 0.0119 283° West  Level FlightAware Approximate
08:42AM 66.6386 -0.2636 283° West  Level FlightAware Approximate
08:43AM 66.6629 -0.5396 283° West  Level FlightAware Approximate
08:44AM 66.6867 -0.8162 282° West  Level FlightAware Approximate
08:45AM 66.7100 -1.0933 282° West  Level FlightAware Approximate
08:46AM 66.7328 -1.3709 282° West  Level FlightAware Approximate
08:47AM 66.7551 -1.6491 282° West  Level FlightAware Approximate
08:48AM 66.7770 -1.9277 281° West  Level FlightAware Approximate
08:49AM 66.7983 -2.2068 281° West  Level FlightAware Approximate
08:50AM 66.8192 -2.4864 281° West  Level FlightAware Approximate
08:51AM 66.8395 -2.7665 281° West  Level FlightAware Approximate
08:52AM 66.8594 -3.0470 280° West  Level FlightAware Approximate
08:53AM 66.8788 -3.3280 280° West  Level FlightAware Approximate
08:54AM 66.8976 -3.6094 280° West  Level FlightAware Approximate
08:55AM 66.9160 -3.8913 280° West  Level FlightAware Approximate
08:56AM 66.9339 -4.1735 279° West  Level FlightAware Approximate
08:57AM 66.9512 -4.4562 279° West  Level FlightAware Approximate
08:58AM 66.9681 -4.7393 279° West  Level FlightAware Approximate
08:59AM 66.9844 -5.0228 279° West  Level FlightAware Approximate
09:00AM 67.0003 -5.3066 278° West  Level FlightAware Approximate
09:01AM 67.0156 -5.5908 278° West  Level FlightAware Approximate
09:02AM 67.0305 -5.8753 278° West  Level FlightAware Approximate
09:03AM 67.0448 -6.1602 277° West  Level FlightAware Approximate
09:04AM 67.0586 -6.4455 277° West  Level FlightAware Approximate
09:05AM 67.0719 -6.7310 277° West  Level FlightAware Approximate
09:06AM 67.0847 -7.0169 277° West  Level FlightAware Approximate
09:07AM 67.0970 -7.3030 276° West  Level FlightAware Approximate
09:08AM 67.1088 -7.5894 276° West  Level FlightAware Approximate
09:09AM 67.1201 -7.8762 276° West  Level FlightAware Approximate
09:10AM 67.1308 -8.1631 276° West  Level FlightAware Approximate
09:11AM 67.1410 -8.4503 275° West  Level FlightAware Approximate
09:12AM 67.1507 -8.7378 275° West  Level FlightAware Approximate
09:13AM 67.1600 -9.0255 275° West  Level FlightAware Approximate
09:14AM 67.1686 -9.3134 275° West  Level FlightAware Approximate
09:15AM 67.1768 -9.6015 274° West  Level FlightAware Approximate
09:16AM 67.1844 -9.8897 274° West  Level FlightAware Approximate
09:17AM 67.1916 -10.1782 274° West  Level FlightAware Approximate
09:18AM 67.1982 -10.4668 274° West  Level FlightAware Approximate
09:19AM 67.2043 -10.7556 273° West  Level FlightAware Approximate
09:20AM 67.2098 -11.0445 273° West  Level FlightAware Approximate
09:21AM 67.2149 -11.3336 273° West  Level FlightAware Approximate
09:22AM 67.2194 -11.6227 272° West  Level FlightAware Approximate
09:23AM 67.2234 -11.9120 272° West  Level FlightAware Approximate
09:24AM 67.2269 -12.2013 272° West  Level FlightAware Approximate
09:25AM 67.2299 -12.4908 272° West  Level FlightAware Approximate
09:26AM 67.2323 -12.7802 271° West  Level FlightAware Approximate
09:27AM 67.2342 -13.0698 271° West  Level FlightAware Approximate
09:28AM 67.2356 -13.3594 271° West  Level FlightAware Approximate
09:29AM 67.2365 -13.6490 271° West  Level FlightAware Approximate
09:30AM 67.2368 -13.9386 270° West  Level FlightAware Approximate
09:31AM 67.2367 -14.2283 270° West  Level FlightAware Approximate
09:32AM 67.2360 -14.5179 270° West  Level FlightAware Approximate
09:33AM 67.2347 -14.8075 270° West  Level FlightAware Approximate
09:34AM 67.2330 -15.0970 269° West  Level FlightAware Approximate
09:35AM 67.2308 -15.3865 269° West  Level FlightAware Approximate
09:36AM 67.2280 -15.6760 269° West  Level FlightAware Approximate
09:37AM 67.2247 -15.9654 268° West  Level FlightAware Approximate
09:38AM 67.2208 -16.2547 268° West  Level FlightAware Approximate
09:39AM 67.2165 -16.5439 268° West  Level FlightAware Approximate
09:40AM 67.2115 -16.8329 268° West  Level FlightAware Approximate
09:41AM 67.2060 -17.1219 267° West  Level FlightAware Approximate
09:42AM 67.2000 -17.4107 267° West  Level FlightAware Approximate
09:43AM 67.1934 -17.6994 267° West  Level FlightAware Approximate
09:44AM 67.1864 -17.9878 267° West  Level FlightAware Approximate
09:45AM 67.1788 -18.2762 266° West  Level FlightAware Approximate
09:46AM 67.1707 -18.5643 266° West  Level FlightAware Approximate
09:47AM 67.1621 -18.8522 266° West  Level FlightAware Approximate
09:48AM 67.1529 -19.1399 265° West  Level FlightAware Approximate
09:49AM 67.1433 -19.4274 265° West  Level FlightAware Approximate
09:50AM 67.1331 -19.7147 265° West  Level FlightAware Approximate
09:51AM 67.1224 -20.0017 265° West  Level FlightAware Approximate
09:52AM 67.1112 -20.2885 264° West  Level FlightAware Approximate
09:53AM 67.0995 -20.5749 264° West  Level FlightAware Approximate
09:54AM 67.0873 -20.8611 264° West  Level FlightAware Approximate
09:55AM 67.0746 -21.1470 264° West  Level FlightAware Approximate
09:56AM 67.0613 -21.4326 263° West  Level FlightAware Approximate
09:57AM 67.0476 -21.7179 263° West  Level FlightAware Approximate
09:58AM 67.0333 -22.0028 263° West  Level FlightAware Approximate
09:59AM 67.0185 -22.2875 263° West  Level FlightAware Approximate
10:00AM 67.0032 -22.5717 262° West  Level FlightAware Approximate
10:01AM 66.9874 -22.8556 262° West  Level FlightAware Approximate
10:02AM 66.9712 -23.1391 262° West  Level FlightAware Approximate
10:03AM 66.9544 -23.4223 262° West  Level FlightAware Approximate
10:04AM 66.9370 -23.7050 261° West  Level FlightAware Approximate
10:05AM 66.9192 -23.9873 261° West  Level FlightAware Approximate
10:06AM 66.9009 -24.2693 261° West  Level FlightAware Approximate
10:07AM 66.8821 -24.5507 260° West  Level FlightAware Approximate
10:08AM 66.8628 -24.8318 260° West  Level FlightAware Approximate
10:09AM 66.8430 -25.1124 260° West  Level FlightAware Approximate
10:10AM 66.8227 -25.3925 260° West  Level FlightAware Approximate
10:11AM 66.8019 -25.6722 259° West  Level FlightAware Approximate
10:12AM 66.7806 -25.9514 259° West  Level FlightAware Approximate
10:13AM 66.7589 -26.2301 259° West  Level FlightAware Approximate
10:14AM 66.7366 -26.5083 259° West  Level FlightAware Approximate
10:15AM 66.7138 -26.7860 258° West  Level FlightAware Approximate
10:16AM 66.6906 -27.0632 258° West  Level FlightAware Approximate
10:17AM 66.6669 -27.3398 258° West  Level FlightAware Approximate
10:18AM 66.6426 -27.6159 258° West  Level FlightAware Approximate
10:19AM 66.6179 -27.8915 257° West  Level FlightAware Approximate
10:20AM 66.5928 -28.1665 257° West  Level FlightAware Approximate
10:21AM 66.5671 -28.4410 257° West  Level FlightAware Approximate
10:22AM 66.5409 -28.7149 257° West  Level FlightAware Approximate
10:23AM 66.5143 -28.9882 256° West  Level FlightAware Approximate
10:24AM 66.4872 -29.2609 256° West  Level FlightAware Approximate
10:25AM 66.4597 -29.5330 256° West  Level FlightAware Approximate
10:26AM 66.4316 -29.8045 256° West  Level FlightAware Approximate
10:27AM 66.4031 -30.0754 255° West  Level FlightAware Approximate
10:28AM 66.3741 -30.3457 255° West  Level FlightAware Approximate
10:29AM 66.3447 -30.6153 255° West  Level FlightAware Approximate
10:30AM 66.3148 -30.8843 255° West  Level FlightAware Approximate
10:31AM 66.2844 -31.1527 254° West  Level FlightAware Approximate
10:32AM 66.2536 -31.4204 254° West  Level FlightAware Approximate
10:33AM 66.2223 -31.6875 254° West  Level FlightAware Approximate
10:34AM 66.1905 -31.9538 254° West  Level FlightAware Approximate
10:35AM 66.1583 -32.2196 253° West  Level FlightAware Approximate
10:36AM 66.1256 -32.4846 253° West  Level FlightAware Approximate
10:37AM 66.0925 -32.7490 253° West  Level FlightAware Approximate
10:38AM 66.0590 -33.0126 253° West  Level FlightAware Approximate
10:39AM 66.0249 -33.2756 252° West  Level FlightAware Approximate
10:40AM 65.9905 -33.5378 252° West  Level FlightAware Approximate
10:41AM 65.9556 -33.7993 252° West  Level FlightAware Approximate
10:42AM 65.9202 -34.0602 252° West  Level FlightAware Approximate
10:43AM 65.8844 -34.3203 251° West  Level FlightAware Approximate
10:44AM 65.8482 -34.5796 251° West  Level FlightAware Approximate
10:45AM 65.8115 -34.8382 251° West  Level FlightAware Approximate
10:46AM 65.7744 -35.0961 251° West  Level FlightAware Approximate
10:47AM 65.7369 -35.3533 251° West  Level FlightAware Approximate
10:48AM 65.6989 -35.6097 250° West  Level FlightAware Approximate
10:49AM 65.6605 -35.8653 250° West  Level FlightAware Approximate
10:50AM 65.6217 -36.1202 250° West  Level FlightAware Approximate
10:51AM 65.5824 -36.3743 250° West  Level FlightAware Approximate
10:52AM 65.5428 -36.6277 249° West  Level FlightAware Approximate
10:53AM 65.5027 -36.8802 249° West  Level FlightAware Approximate
10:54AM 65.4622 -37.1320 249° West  Level FlightAware Approximate
10:55AM 65.4212 -37.3830 249° West  Level FlightAware Approximate
10:56AM 65.3799 -37.6332 248° West  Level FlightAware Approximate
10:57AM 65.3381 -37.8827 248° West  Level FlightAware Approximate
10:58AM 65.2960 -38.1313 248° West  Level FlightAware Approximate
10:59AM 65.2534 -38.3791 248° West  Level FlightAware Approximate
11:00AM 65.2104 -38.6262 248° West  Level FlightAware Approximate
11:01AM 65.1670 -38.8724 247° West  Level FlightAware Approximate
11:02AM 65.1232 -39.1178 247° West  Level FlightAware Approximate
11:03AM 65.0790 -39.3624 247° West  Level FlightAware Approximate
11:04AM 65.0344 -39.6062 247° West  Level FlightAware Approximate
11:05AM 64.9895 -39.8492 246° West  Level FlightAware Approximate
11:06AM 64.9441 -40.0914 246° West  Level FlightAware Approximate
11:07AM 64.8983 -40.3327 246° West  Level FlightAware Approximate
11:08AM 64.8522 -40.5732 246° West  Level FlightAware Approximate
11:09AM 64.8056 -40.8129 246° West  Level FlightAware Approximate
11:10AM 64.7587 -41.0518 245° Southwest  Level FlightAware Approximate
11:11AM 64.7114 -41.2898 245° Southwest  Level FlightAware Approximate
11:12AM 64.6637 -41.5270 245° Southwest  Level FlightAware Approximate
11:13AM 64.6156 -41.7633 245° Southwest  Level FlightAware Approximate
11:14AM 64.5672 -41.9988 244° Southwest  Level FlightAware Approximate
11:15AM 64.5184 -42.2335 244° Southwest  Level FlightAware Approximate
11:16AM 64.4692 -42.4674 244° Southwest  Level FlightAware Approximate
11:17AM 64.4196 -42.7003 244° Southwest  Level FlightAware Approximate
11:18AM 64.3697 -42.9325 244° Southwest  Level FlightAware Approximate
11:19AM 64.3194 -43.1638 243° Southwest  Level FlightAware Approximate
11:20AM 64.2687 -43.3942 243° Southwest  Level FlightAware Approximate
11:21AM 64.2177 -43.6239 243° Southwest  Level FlightAware Approximate
11:22AM 64.1663 -43.8526 243° Southwest  Level FlightAware Approximate
11:23AM 64.1146 -44.0806 243° Southwest  Level FlightAware Approximate
11:24AM 64.0625 -44.3076 242° Southwest  Level FlightAware Approximate
11:25AM 64.0101 -44.5338 242° Southwest  Level FlightAware Approximate
11:26AM 63.9573 -44.7592 242° Southwest  Level FlightAware Approximate
11:27AM 63.9041 -44.9837 242° Southwest  Level FlightAware Approximate
11:28AM 63.8507 -45.2074 242° Southwest  Level FlightAware Approximate
11:29AM 63.7968 -45.4302 241° Southwest  Level FlightAware Approximate
11:30AM 63.7426 -45.6521 241° Southwest  Level FlightAware Approximate
11:31AM 63.6881 -45.8732 241° Southwest  Level FlightAware Approximate
11:32AM 63.6333 -46.0935 241° Southwest  Level FlightAware Approximate
11:33AM 63.5781 -46.3129 241° Southwest  Level FlightAware Approximate
11:34AM 63.5226 -46.5314 240° Southwest  Level FlightAware Approximate
11:35AM 63.4667 -46.7491 240° Southwest  Level FlightAware Approximate
11:36AM 63.4105 -46.9660 240° Southwest  Level FlightAware Approximate
11:37AM 63.3540 -47.1820 240° Southwest  Level FlightAware Approximate
11:38AM 63.2972 -47.3971 240° Southwest  Level FlightAware Approximate
11:39AM 63.2401 -47.6115 239° Southwest  Level FlightAware Approximate
11:40AM 63.1826 -47.8249 239° Southwest  Level FlightAware Approximate
11:41AM 63.1248 -48.0375 239° Southwest  Level FlightAware Approximate
11:42AM 63.0667 -48.2493 239° Southwest  Level FlightAware Approximate
11:43AM 63.0082 -48.4602 239° Southwest  Level FlightAware Approximate
11:44AM 62.9495 -48.6702 238° Southwest  Level FlightAware Approximate
11:45AM 62.8904 -48.8795 238° Southwest  Level FlightAware Approximate
11:46AM 62.8311 -49.0878 238° Southwest  Level FlightAware Approximate
11:47AM 62.7714 -49.2954 238° Southwest  Level FlightAware Approximate
11:48AM 62.7114 -49.5021 238° Southwest  Level FlightAware Approximate
11:49AM 62.6512 -49.7079 238° Southwest  Level FlightAware Approximate
11:50AM 62.5906 -49.9129 237° Southwest  Level FlightAware Approximate
11:51AM 62.5297 -50.1171 237° Southwest  Level FlightAware Approximate
11:52AM 62.4686 -50.3205 237° Southwest  Level FlightAware Approximate
11:53AM 62.4071 -50.5230 237° Southwest  Level FlightAware Approximate
11:53AM 63.7500 -54.8167 236° Southwest 300 345 35,000  Level Gander Center
11:54AM 62.3453 -50.7247 237° Southwest  Level FlightAware Approximate
11:54AM 63.6667 -55.0500 231° Southwest 440 506 35,000  Level Gander Center
11:55AM 62.2833 -50.9255 236° Southwest  Level FlightAware Approximate
11:55AM 63.6000 -55.2500 233° Southwest 440 506 35,000  Level Gander Center
11:56AM 62.2210 -51.1256 236° Southwest  Level FlightAware Approximate
11:56AM 63.5333 -55.4833 237° Southwest 440 506 35,000  Level Gander Center
11:57AM 62.1583 -51.3248 236° Southwest  Level FlightAware Approximate
11:57AM 63.4667 -55.6833 233° Southwest 440 506 35,000  Level Gander Center
11:58AM 62.0954 -51.5231 236° Southwest  Level FlightAware Approximate
11:58AM 63.3833 -55.9167 232° Southwest 440 506 35,300  Level Gander Center
11:59AM 63.3167 -56.2000 242° Southwest 430 495 36,300 960 Climbing Gander Center
12:00PM 63.2333 -56.3833 225° Southwest 440 506 37,300 540 Climbing Gander Center
12:02PM 63.1000 -56.8500 238° Southwest 440 506 38,000 180 Climbing Gander Center
12:03PM 63.0333 -57.0500 234° Southwest 440 506 38,000  Level Gander Center
12:04PM 62.9667 -57.2333 231° Southwest 440 506 38,000  Level Gander Center
12:05PM 62.8667 -57.5000 231° Southwest 440 506 38,000  Level Gander Center
12:06PM 62.8167 -57.7000 241° Southwest 440 506 38,000  Level Gander Center
12:07PM 62.7333 -57.9167 230° Southwest 440 506 38,000  Level Gander Center
12:08PM 62.6500 -58.1500 232° Southwest 440 506 38,000  Level Gander Center
12:09PM 62.5833 -58.3333 232° Southwest 440 506 38,000  Level Gander Center
12:10PM 62.5167 -58.5500 236° Southwest 440 506 38,000  Level Gander Center
12:11PM 62.4333 -58.7833 232° Southwest 440 506 38,000  Level Gander Center
12:12PM 62.3500 -58.9667 226° Southwest 440 506 38,000  Level Gander Center
12:13PM 62.3000 -59.1833 244° Southwest 440 506 38,000  Level Gander Center
12:14PM 62.2167 -59.4000 231° Southwest 450 518 38,000  Level Gander Center
12:15PM 62.1333 -59.5833 226° Southwest 450 518 38,000  Level Gander Center
12:16PM 62.0500 -59.8000 231° Southwest 450 518 38,000  Level Gander Center
12:17PM 61.9667 -60.0167 231° Southwest 450 518 38,000  Level Gander Center
12:18PM 61.9000 -60.1833 230° Southwest 450 518 38,000  Level Gander Center
12:19PM 61.8167 -60.4000 231° Southwest 450 518 38,000  Level Gander Center
12:20PM 61.7500 -60.6167 237° Southwest 450 518 38,000  Level Gander Center
12:21PM 61.6667 -60.8000 226° Southwest 440 506 38,000  Level Gander Center
12:22PM 61.5833 -61.0000 229° Southwest 450 518 38,000  Level Gander Center
12:23PM 61.5167 -61.1000 216° Southwest 440 506 38,000  Level Montreal Center
12:24PM 61.4333 -61.3833 238° Southwest 440 506 38,000  Level Gander Center
12:25PM 61.3500 -61.6000 231° Southwest 450 518 38,000  Level Gander Center
12:26PM 61.2833 -61.7667 230° Southwest 450 518 38,000  Level Gander Center
12:27PM 61.2000 -61.9667 229° Southwest 450 518 38,000  Level Gander Center
12:28PM 61.1167 -62.1833 232° Southwest 450 518 38,000  Level Gander Center
12:29PM 61.0333 -62.3500 224° Southwest 450 518 38,000  Level Gander Center
12:30PM 60.9500 -62.4833 218° Southwest 440 506 38,000  Level Montreal Center
12:31PM 60.8667 -62.7500 237° Southwest 450 518 38,000  Level Gander Center
12:32PM 60.7833 -62.9500 230° Southwest 470 541 38,000  Level Gander Center
12:33PM 60.7000 -63.1500 230° Southwest 450 518 38,000  Level Gander Center
12:34PM 60.6167 -63.3500 230° Southwest 450 518 38,000  Level Gander Center
12:35PM 60.5333 -63.5500 230° Southwest 450 518 38,000  Level Gander Center
12:36PM 60.4500 -63.7500 230° Southwest 450 518 38,000  Level Gander Center
12:37PM 60.3667 -63.9000 222° Southwest 450 518 38,000  Level Gander Center
12:38PM 60.2833 -64.1000 230° Southwest 450 518 38,000  Level Gander Center
12:39PM 60.2000 -64.3000 230° Southwest 450 518 38,000  Level Gander Center
12:40PM 60.1167 -64.4500 222° Southwest 450 518 38,000  Level Gander Center
12:41PM 60.0500 -64.6500 236° Southwest 450 518 38,000  Level Gander Center
12:42PM 59.9500 -64.8000 217° Southwest 450 518 38,000  Level Gander Center
12:43PM 59.8667 -65.0000 230° Southwest 450 518 38,000  Level Gander Center
12:44PM 59.7833 -65.1833 228° Southwest 450 518 38,000  Level Gander Center
12:45PM 59.6833 -65.3333 217° Southwest 450 518 38,000  Level Gander Center
12:46PM 59.6000 -65.5333 231° Southwest 450 518 38,000  Level Gander Center
12:47PM 59.5167 -65.7167 228° Southwest 450 518 38,000  Level Gander Center
12:48PM 59.4167 -65.9000 223° Southwest 450 518 38,000  Level Gander Center
12:49PM 59.3333 -66.0833 228° Southwest 450 518 38,000  Level Gander Center
12:50PM 59.2667 -66.2333 229° Southwest 460 529 38,000  Level Gander Center
12:51PM 59.1667 -66.4167 223° Southwest 460 529 38,000  Level Gander Center
12:52PM 59.1000 -66.5167 218° Southwest 450 518 38,000  Level Montreal Center
12:53PM 59.0000 -66.7000 223° Southwest 450 518 38,000  Level Montreal Center
12:54PM 58.9167 -66.8667 226° Southwest 450 518 38,000  Level Montreal Center
12:55PM 58.8333 -67.0500 229° Southwest 450 518 38,000  Level Montreal Center
12:56PM 58.7167 -67.2833 226° Southwest 460 529 38,000  Level Gander Center
12:57PM 58.6333 -67.4667 229° Southwest 460 529 38,000  Level Gander Center
12:58PM 58.5333 -67.6333 221° Southwest 460 529 38,000  Level Gander Center
12:59PM 58.4500 -67.8167 229° Southwest 460 529 38,000  Level Gander Center
01:00PM 58.3500 -67.9833 221° Southwest 460 529 38,000  Level Gander Center
01:01PM 58.2667 -68.1333 223° Southwest 460 529 38,000  Level Gander Center
01:02PM 58.1667 -68.3333 227° Southwest 470 541 38,000  Level Gander Center
01:03PM 58.0667 -68.4833 218° Southwest 460 529 38,000  Level Gander Center
01:04PM 57.9833 -68.6167 220° Southwest 470 541 38,000  Level Gander Center
01:05PM 57.8833 -68.7500 215° Southwest 460 529 38,000  Level Gander Center
01:06PM 57.7667 -68.8833 211° Southwest 460 529 38,000  Level Gander Center
01:07PM 57.6833 -69.0333 224° Southwest 460 529 38,000  Level Gander Center
01:08PM 57.5667 -69.1667 212° Southwest 460 529 38,000  Level Gander Center
01:09PM 57.4500 -69.3167 215° Southwest 460 529 38,000  Level Gander Center
01:10PM 57.3667 -69.4667 224° Southwest 460 529 38,000  Level Gander Center
01:11PM 57.2500 -69.5833 208° Southwest 460 529 38,000  Level Gander Center
01:12PM 57.1500 -69.7167 216° Southwest 460 529 38,000  Level Gander Center
01:13PM 57.0500 -69.8500 216° Southwest 460 529 38,000  Level Gander Center
01:14PM 56.9500 -69.9833 216° Southwest 460 529 38,000  Level Gander Center
01:15PM 56.8333 -70.1167 212° Southwest 460 529 38,000  Level Gander Center
01:16PM 56.7333 -70.2500 216° Southwest 460 529 38,000  Level Gander Center
01:17PM 56.6333 -70.4000 220° Southwest 460 529 38,000  Level Gander Center
01:18PM 56.5167 -70.5333 212° Southwest 460 529 38,000  Level Gander Center
01:19PM 56.4167 -70.6500 213° Southwest 460 529 38,000  Level Gander Center
01:20PM 56.3167 -70.7833 217° Southwest 460 529 38,000  Level Gander Center
01:21PM 56.2000 -70.9000 209° Southwest 460 529 38,000  Level Gander Center
01:22PM 56.1000 -71.0667 223° Southwest 470 541 38,000  Level Gander Center
01:23PM 55.9833 -71.1833 209° Southwest 470 541 38,000  Level Gander Center
01:24PM 55.8667 -71.3000 209° Southwest 470 541 38,000  Level Gander Center
01:25PM 55.7667 -71.4333 217° Southwest 470 541 38,000  Level Gander Center
01:26PM 55.6667 -71.5500 213° Southwest 470 541 38,000  Level Gander Center
01:27PM 55.5500 -71.6667 210° Southwest 470 541 38,000  Level Gander Center
01:28PM 55.4500 -71.8167 220° Southwest 470 541 38,000  Level Gander Center
01:29PM 55.3333 -71.9333 210° Southwest 470 541 38,000  Level Gander Center
01:30PM 55.2333 -72.0667 217° Southwest 470 541 38,000  Level Gander Center
01:31PM 55.1333 -72.1833 214° Southwest 470 541 38,000  Level Gander Center
01:32PM 55.0167 -72.3000 210° Southwest 460 529 38,000  Level Gander Center
01:33PM 54.9000 -72.4500 216° Southwest 460 529 38,000  Level Gander Center
01:34PM 54.7833 -72.5667 210° Southwest 460 529 38,000  Level Gander Center
01:35PM 54.7000 -72.6833 219° Southwest 460 529 38,000  Level Gander Center
01:36PM 54.5833 -72.8000 210° Southwest 460 529 38,000  Level Gander Center
01:37PM 54.4667 -72.9000 206° Southwest 460 529 38,000  Level Gander Center
01:38PM 54.3500 -73.0167 210° Southwest 470 541 38,000  Level Gander Center
01:39PM 54.2667 -73.1667 226° Southwest 470 541 38,000  Level Gander Center
01:40PM 54.1500 -73.2833 210° Southwest 470 541 38,000  Level Gander Center
01:41PM 54.0333 -73.3833 207° Southwest 470 541 38,000  Level Gander Center
01:42PM 53.9167 -73.5000 211° Southwest 470 541 38,000  Level Gander Center
01:43PM 53.8333 -73.6167 220° Southwest 470 541 38,000  Level Gander Center
01:44PM 53.7167 -73.7167 207° Southwest 470 541 38,000  Level Gander Center
01:45PM 53.6000 -73.8333 211° Southwest 470 541 38,000  Level Gander Center
01:46PM 53.4667 -73.9333 204° Southwest 470 541 38,000  Level Gander Center
01:47PM 53.3667 -74.0500 215° Southwest 470 541 38,000  Level Gander Center
01:48PM 53.2333 -74.1167 197° South 470 541 38,000  Level Gander Center
01:49PM 53.1167 -74.2333 211° Southwest 460 529 38,000  Level Gander Center
01:50PM 53.0167 -74.3000 202° Southwest 460 529 38,000  Level Gander Center
01:51PM 52.9000 -74.4167 211° Southwest 460 529 38,000  Level Gander Center
01:52PM 52.7833 -74.5167 207° Southwest 470 541 38,000  Level Gander Center
01:53PM 52.6667 -74.6000 203° Southwest 470 541 38,000  Level Gander Center
01:54PM 52.5500 -74.7000 208° Southwest 470 541 38,000  Level Gander Center
01:55PM 52.4333 -74.7667 199° South 470 541 38,000  Level Gander Center
01:56PM 52.3167 -74.8833 211° Southwest 470 541 38,000  Level Gander Center
01:57PM 52.2000 -74.9833 208° Southwest 470 541 38,000  Level Gander Center
01:58PM 52.0833 -75.0500 199° South 470 541 38,000  Level Gander Center
01:59PM 51.9667 -75.1500 208° Southwest 470 541 38,000  Level Gander Center
02:00PM 51.8333 -75.2500 205° Southwest 470 541 38,000  Level Gander Center
02:01PM 51.7167 -75.3500 208° Southwest 470 541 38,000  Level Gander Center
02:02PM 51.6167 -75.4333 207° Southwest 470 541 38,000  Level Gander Center
02:04PM 51.4500 -75.5000 194° South 460 529 38,000  Level Montreal Center
02:05PM 51.3167 -75.6167 209° Southwest 470 541 38,000  Level Montreal Center
02:06PM 51.2000 -75.7000 204° Southwest 470 541 38,000  Level Montreal Center
02:07PM 51.0833 -75.7833 204° Southwest 460 529 38,000  Level Montreal Center
02:08PM 50.9667 -75.8500 200° South 460 529 38,000  Level Montreal Center
02:09PM 50.8667 -75.9667 216° Southwest 460 529 38,000  Level Montreal Center
02:10PM 50.7333 -76.0500 202° Southwest 460 529 38,000  Level Montreal Center
02:11PM 50.6167 -76.1167 200° South 460 529 38,000  Level Montreal Center
02:12PM 50.5000 -76.2333 212° Southwest 460 529 38,000  Level Montreal Center
02:13PM 50.4000 -76.3167 208° Southwest 470 541 38,000  Level Montreal Center
02:14PM 50.2667 -76.3833 198° South 470 541 38,000  Level Montreal Center
02:15PM 50.1500 -76.4667 205° Southwest 460 529 38,000  Level Montreal Center
02:16PM 50.0167 -76.5667 206° Southwest 460 529 38,000  Level Montreal Center
02:17PM 49.9000 -76.6500 205° Southwest 460 529 38,000  Level Montreal Center
02:18PM 49.7833 -76.7167 200° South 460 529 38,000  Level Montreal Center
02:19PM 49.6667 -76.8000 205° Southwest 460 529 38,000  Level Montreal Center
02:20PM 49.5667 -76.9000 213° Southwest 460 529 38,000  Level Montreal Center
02:21PM 49.4333 -76.9667 198° South 470 541 38,000  Level Montreal Center
02:22PM 49.3167 -77.0500 205° Southwest 480 552 38,000  Level Montreal Center
02:23PM 49.2000 -77.1167 200° South 450 518 38,000  Level Montreal Center
02:24PM 49.0833 -77.2167 209° Southwest 470 541 38,000  Level Montreal Center
02:25PM 48.9667 -77.3000 205° Southwest 460 529 38,000  Level Montreal Center
02:26PM 48.8333 -77.3667 198° South 460 529 38,000  Level Montreal Center
02:27PM 48.7167 -77.4500 205° Southwest 460 529 38,000  Level Montreal Center
02:28PM 48.6000 -77.5167 201° Southwest 450 518 38,000  Level Montreal Center
02:29PM 48.5000 -77.5833 204° Southwest 450 518 38,000  Level Montreal Center
02:30PM 48.3833 -77.6833 210° Southwest 450 518 38,000  Level Montreal Center
02:31PM 48.2667 -77.7667 205° Southwest 450 518 38,000  Level Montreal Center
02:32PM 48.1500 -77.8333 201° Southwest 450 518 38,000  Level Montreal Center
02:33PM 48.0333 -77.9000 201° Southwest 450 518 38,000  Level Montreal Center
02:34PM 47.9000 -77.9667 199° South 450 518 38,000  Level Montreal Center
02:35PM 47.7833 -78.0333 201° Southwest 450 518 38,000  Level Montreal Center
02:36PM 47.6667 -78.1167 206° Southwest 460 529 38,000  Level Montreal Center
02:37PM 47.5667 -78.1833 204° Southwest 460 529 38,000  Level Montreal Center
02:38PM 47.4333 -78.2500 199° South 460 529 38,000  Level Montreal Center
02:39PM 47.3333 -78.3167 204° Southwest 460 529 38,000  Level Montreal Center
02:40PM 47.2000 -78.3833 199° South 460 529 38,000  Level Montreal Center
02:41PM 47.0667 -78.4500 199° South 460 529 38,000  Level Montreal Center
02:42PM 46.9500 -78.5167 201° Southwest 460 529 38,000  Level Montreal Center
02:43PM 46.8333 -78.5667 196° South 460 529 38,000  Level Toronto Center
02:44PM 46.7167 -78.6333 201° Southwest 460 529 38,000  Level Toronto Center
02:45PM 46.6000 -78.6833 196° South 460 529 38,000  Level Toronto Center
02:50PM 45.9803 -79.0583 201° Southwest 454 522 38,000  Level FlightAware ADS-B (CYYZ)
02:50PM 45.9245 -79.0884 201° Southwest 453 521 38,000  Level FlightAware ADS-B (CYYZ)
02:51PM 45.8638 -79.1210 201° Southwest 450 518 38,000  Level FlightAware ADS-B (CYYZ)
02:51PM 45.8035 -79.1534 201° Southwest 450 518 38,000  Level FlightAware ADS-B (CYYZ)
02:52PM 45.7474 -79.1834 201° Southwest 451 519 38,000  Level FlightAware ADS-B (CYYZ)
02:52PM 45.6901 -79.2140 201° Southwest 450 518 38,000  Level FlightAware ADS-B (CYYZ)
02:53PM 45.6440 -79.2386 201° Southwest 450 518 38,000  Level FlightAware ADS-B (CYYZ)
02:53PM 45.5728 -79.2765 201° Southwest 449 517 38,000  Level FlightAware ADS-B (CYYZ)
02:54PM 45.5126 -79.3084 201° Southwest 446 513 38,000  Level FlightAware ADS-B (CYYZ)
02:54PM 45.4544 -79.3392 201° Southwest 444 511 38,000  Level FlightAware ADS-B (CYYZ)
02:55PM 45.3984 -79.3689 201° Southwest 443 510 38,000  Level FlightAware ADS-B (CYYZ)
02:55PM 45.4467 -79.3433 200° South 443 510 38,000  Level FlightAware ADS-B (CYKF)
02:55PM 45.3401 -79.3996 201° Southwest 443 510 38,000  Level FlightAware ADS-B (CYYZ)
02:56PM 45.2856 -79.4283 201° Southwest 445 512 38,000  Level FlightAware ADS-B (CYYZ)
02:56PM 45.2248 -79.4602 201° Southwest 447 514 38,000  Level FlightAware ADS-B (CYYZ)
02:57PM 45.1671 -79.4905 201° Southwest 448 516 38,000  Level FlightAware ADS-B (CYYZ)
02:57PM 45.1149 -79.5178 201° Southwest 449 517 38,000  Level FlightAware ADS-B (CYYZ)
02:58PM 45.0623 -79.5452 201° Southwest 450 518 38,000  Level FlightAware ADS-B (CYYZ)
02:58PM 44.9942 -79.5807 201° Southwest 449 517 38,000  Level FlightAware ADS-B (CYYZ)
02:59PM 45.2536 -79.4451 200° South 450 518 38,000  Level FlightAware ADS-B (CYKF)
03:01PM 44.7068 -79.7292 201° Southwest 448 516 38,000  Level FlightAware ADS-B (CYYZ)
03:01PM 44.6416 -79.7627 201° Southwest 447 514 38,000  Level FlightAware ADS-B (CYYZ)
03:02PM 44.5681 -79.8072 208° Southwest 437 503 38,000  Level FlightAware ADS-B (CYYZ)
03:03PM 44.4826 -79.8819 214° Southwest 431 496 38,000  Level FlightAware ADS-B (CYYZ)
03:03PM 44.4342 -79.9263 214° Southwest 429 494 38,000  Level FlightAware ADS-B (CYYZ)
03:04PM 44.3836 -79.9722 213° Southwest 428 493 38,000  Level FlightAware ADS-B (CYYZ)
03:04PM 44.3336 -80.0171 213° Southwest 428 493 38,000  Level FlightAware ADS-B (CYYZ)
03:05PM 44.2835 -80.0619 213° Southwest 427 491 38,000  Level FlightAware ADS-B (CYYZ)
03:05PM 44.2337 -80.1064 213° Southwest 426 490 38,000  Level FlightAware ADS-B (CYYZ)
03:06PM 44.1844 -80.1504 213° Southwest 424 488 38,000  Level FlightAware ADS-B (CYYZ)
03:06PM 44.1683 -80.1647 213° Southwest 423 487 38,000  Level FlightAware ADS-B (CYKF)
03:06PM 44.1353 -80.1941 213° Southwest 422 486 38,000  Level FlightAware ADS-B (CYYZ)
03:07PM 44.0881 -80.2360 213° Southwest 421 484 38,000  Level FlightAware ADS-B (CYYZ)
03:07PM 44.1170 -80.2103 213° Southwest 420 483 38,000  Level FlightAware ADS-B (CYKF)
03:07PM 44.0385 -80.2800 213° Southwest 421 484 38,000  Level FlightAware ADS-B (CYYZ)
03:08PM 43.9881 -80.3247 213° Southwest 420 483 38,000  Level FlightAware ADS-B (CYYZ)
03:08PM 43.9452 -80.3625 213° Southwest 420 483 38,000  Level FlightAware ADS-B (CYYZ)
03:09PM 43.9533 -80.3554 212° Southwest 420 483 38,000  Level FlightAware ADS-B
03:09PM 43.8897 -80.4114 213° Southwest 421 484 38,000  Level FlightAware ADS-B (CYYZ)
03:09PM 43.8436 -80.4520 213° Southwest 421 484 38,000  Level FlightAware ADS-B (CYYZ)
03:10PM 43.7988 -80.4914 213° Southwest 422 486 38,000  Level FlightAware ADS-B (CYYZ)
03:10PM 43.9533 -80.3554 212° Southwest 422 486 38,000  Level FlightAware ADS-B
03:11PM 43.7033 -80.5751 213° Southwest 423 487 38,000  Level FlightAware ADS-B (CYYZ)
03:11PM 43.7089 -80.5701 212° Southwest 423 487 38,000  Level FlightAware ADS-B (CYKF)
03:11PM 43.6516 -80.6202 213° Southwest 423 487 38,000  Level FlightAware ADS-B (CYYZ)
03:12PM 43.5802 -80.6823 212° Southwest 422 486 38,000  Level FlightAware ADS-B (CYKF)
03:13PM 43.5317 -80.7245 213° Southwest 423 487 38,000  Level FlightAware ADS-B (CYYZ)
03:13PM 43.5205 -80.7343 212° Southwest 422 486 38,000  Level FlightAware ADS-B (CYKF)
03:13PM 43.4546 -80.7914 213° Southwest 423 487 38,000  Level FlightAware ADS-B (CYYZ)
03:14PM 43.4064 -80.8331 213° Southwest 424 488 38,000  Level FlightAware ADS-B (CYYZ)
03:15PM 43.3061 -80.9196 213° Southwest 424 488 38,000  Level FlightAware ADS-B (CYYZ)
03:15PM 43.2790 -80.9429 212° Southwest 422 486 38,000  Level FlightAware ADS-B
03:15PM 43.2589 -80.9601 212° Southwest 423 487 38,000  Level FlightAware ADS-B (CYYZ)
03:16PM 43.2057 -81.0056 213° Southwest 421 484 38,000  Level FlightAware ADS-B (CYYZ)
03:17PM 43.0916 -81.1030 212° Southwest 419 482 38,000  Level FlightAware ADS-B (CYYZ)
03:18PM 43.0413 -81.1450 210° Southwest 422 486 38,000  Level FlightAware ADS-B (CYYZ)
03:18PM 42.9529 -81.2003 205° Southwest 426 490 38,000  Level FlightAware ADS-B (CYYZ)
03:19PM 42.8992 -81.2345 205° Southwest 429 494 38,000  Level FlightAware ADS-B (CYYZ)
03:19PM 42.8458 -81.2679 205° Southwest 430 495 38,000  Level FlightAware ADS-B (CYYZ)
03:20PM 42.7907 -81.3018 205° Southwest 430 495 38,000  Level FlightAware ADS-B (CYYZ)
03:20PM 42.7365 -81.3352 205° Southwest 428 493 38,000  Level FlightAware ADS-B (CYYZ)
03:21PM 42.6838 -81.3674 205° Southwest 424 488 38,000  Level FlightAware ADS-B (CYYZ)
03:21PM 42.6371 -81.3959 205° Southwest 422 486 38,000  Level FlightAware ADS-B (CYYZ)
03:22PM 42.5765 -81.4330 205° Southwest 422 486 38,000  Level FlightAware ADS-B (CYYZ)
03:22PM 42.5229 -81.4657 205° Southwest 421 484 38,000  Level FlightAware ADS-B (CYYZ)
03:23PM 42.4701 -81.4978 205° Southwest 419 482 38,000  Level FlightAware ADS-B (CYYZ)
03:23PM 42.4179 -81.5295 205° Southwest 418 481 38,000  Level FlightAware ADS-B (CYYZ)
03:24PM 42.3687 -81.5594 205° Southwest 417 480 38,000  Level FlightAware ADS-B (CYYZ)
03:24PM 42.3115 -81.5940 205° Southwest 416 479 38,000  Level FlightAware ADS-B (CYYZ)
03:25PM 42.2623 -81.6238 205° Southwest 415 478 38,000  Level FlightAware ADS-B (CYYZ)
03:25PM 42.2094 -81.6556 205° Southwest 414 476 38,000  Level FlightAware ADS-B (CYYZ)
03:26PM 42.1570 -81.6872 205° Southwest 413 475 38,000  Level FlightAware ADS-B (CYYZ)
03:26PM 42.1036 -81.7195 205° Southwest 413 475 38,000  Level FlightAware ADS-B (CYYZ)
03:27PM 42.0173 -81.7712 205° Southwest 412 474 38,000  Level FlightAware ADS-B (CYYZ)
03:28PM 41.9570 -81.8075 205° Southwest 412 474 38,000  Level FlightAware ADS-B (CYYZ)
03:28PM 41.9056 -81.8382 205° Southwest 412 474 38,000  Level FlightAware ADS-B (CYYZ)
03:29PM 41.8541 -81.8692 205° Southwest 412 474 38,000  Level FlightAware ADS-B (CYYZ)
03:29PM 41.8005 -81.9008 205° Southwest 410 472 38,000  Level FlightAware ADS-B (CYYZ)
03:30PM 41.7482 -81.9318 205° Southwest 409 471 38,000  Level FlightAware ADS-B (CYYZ)
03:31PM 41.5840 -82.0290 204° Southwest 404 465 38,000  Level FlightAware ADS-B (CYYZ)
03:32PM 41.5543 -82.0465 204° Southwest 403 464 38,000  Level FlightAware ADS-B (CYYZ)
03:33PM 41.4806 -82.0900 205° Southwest 399 459 38,000  Level FlightAware ADS-B (CYYZ)
03:33PM 41.3883 -82.1443 204° Southwest 400 460 38,000  Level FlightAware ADS-B (CYYZ)
03:34PM 41.3206 -82.1747 195° South 410 472 38,000  Level FlightAware ADS-B (CYYZ)
03:34PM 41.2725 -82.1917 196° South 411 473 38,000  Level FlightAware ADS-B (CYYZ)
03:35PM 41.1883 -82.2228 196° South 410 472 38,000  Level Indianapolis Center
03:36PM 41.1331 -82.2428 195° South 409 471 38,000  Level Cleveland Center
03:37PM 41.0222 -82.2825 195° South 409 471 38,000  Level Cleveland Center
03:38PM 40.8906 -82.3286 195° South 412 474 38,000  Level Cleveland Center
03:38PM 40.8347 -82.3492 196° South 412 474 38,000  Level Indianapolis Center
03:39PM 40.7225 -82.3883 195° South 412 474 38,000  Level Indianapolis Center
03:45PM 40.0808 -82.5923 183° South 437 503 38,000  Level FlightAware ADS-B
03:46PM 39.9754 -82.6001 183° South 434 499 38,000  Level FlightAware ADS-B
03:46PM 39.9126 -82.6046 183° South 433 498 38,000  Level FlightAware ADS-B
03:47PM 39.8371 -82.6098 183° South 433 498 38,000  Level FlightAware ADS-B
03:48PM 39.7699 -82.6143 183° South 432 497 38,000  Level FlightAware ADS-B
03:48PM 39.7017 -82.6190 183° South 432 497 38,000  Level FlightAware ADS-B
03:49PM 39.6388 -82.6232 183° South 432 497 38,000  Level FlightAware ADS-B
03:49PM 39.5739 -82.6276 183° South 431 496 38,000  Level FlightAware ADS-B
03:50PM 39.5112 -82.6318 183° South 430 495 38,000  Level FlightAware ADS-B
03:50PM 39.4511 -82.6358 183° South 429 494 38,000  Level FlightAware ADS-B
03:51PM 39.3861 -82.6402 183° South 429 494 38,000  Level FlightAware ADS-B
03:52PM 39.2988 -82.6459 183° South 427 491 38,000  Level FlightAware ADS-B
03:52PM 39.2349 -82.6501 183° South 426 490 38,000  Level FlightAware ADS-B
03:53PM 39.1443 -82.6562 183° South 423 487 38,000  Level FlightAware ADS-B
03:53PM 39.0805 -82.6604 183° South 420 483 38,000  Level FlightAware ADS-B
03:54PM 39.0039 -82.6655 183° South 421 484 38,000  Level FlightAware ADS-B
03:55PM 38.9417 -82.6696 183° South 421 484 38,000  Level FlightAware ADS-B
03:55PM 38.8830 -82.6735 183° South 422 486 38,000  Level FlightAware ADS-B
03:56PM 38.8137 -82.6780 183° South 423 487 38,000  Level FlightAware ADS-B
03:56PM 38.7543 -82.6819 183° South 422 486 38,000  Level FlightAware ADS-B
03:57PM 38.6842 -82.6865 183° South 421 484 38,000  Level FlightAware ADS-B
03:57PM 38.6254 -82.6903 183° South 421 484 38,000  Level FlightAware ADS-B
03:58PM 38.5328 -82.6961 183° South 421 484 38,000  Level Indianapolis Center
03:59PM 38.4161 -82.7047 183° South 421 484 38,000  Level Indianapolis Center
04:00PM 38.2992 -82.7122 183° South 421 484 38,000  Level Indianapolis Center
04:01PM 38.1819 -82.7192 183° South 421 484 38,000  Level Indianapolis Center
04:02PM 38.0636 -82.7275 183° South 421 484 38,000  Level Indianapolis Center
04:03PM 37.9256 -82.7358 183° South 422 486 38,000  Level Indianapolis Center
04:04PM 37.8081 -82.7425 183° South 422 486 38,000  Level Indianapolis Center
04:05PM 37.6922 -82.7603 187° South 422 486 38,000  Level Indianapolis Center
04:06PM 37.5864 -82.8111 201° Southwest 412 474 38,000  Level Indianapolis Center
04:07PM 37.4897 -82.8764 208° Southwest 398 458 38,000  Level Indianapolis Center
04:08PM 37.3753 -82.9514 208° Southwest 398 458 38,000  Level Indianapolis Center
04:10PM 37.2781 -83.0153 208° Southwest 398 458 38,000  Level Indianapolis Center
04:11PM 37.1797 -83.0792 207° Southwest 398 458 38,000  Level Indianapolis Center
04:12PM 37.0814 -83.1428 207° Southwest 398 458 38,000  Level Indianapolis Center
04:13PM 36.9669 -83.2178 208° Southwest 398 458 38,000  Level Indianapolis Center
04:14PM 36.8689 -83.2811 207° Southwest 399 459 38,000  Level Indianapolis Center
04:15PM 36.7708 -83.3444 207° Southwest 399 459 38,000  Level Indianapolis Center
04:16PM 36.6728 -83.4064 207° Southwest 398 458 38,000  Level Indianapolis Center
04:17PM 36.5747 -83.4694 207° Southwest 398 458 38,000  Level Indianapolis Center
04:18PM 36.4731 -83.5344 207° Southwest 398 458 38,000  Level Indianapolis Center
04:19PM 36.3758 -83.5964 207° Southwest 397 457 38,000  Level Indianapolis Center
04:20PM 36.2575 -83.6706 207° Southwest 397 457 38,000  Level Indianapolis Center
04:21PM 36.1597 -83.7331 207° Southwest 397 457 38,000  Level Indianapolis Center
04:22PM 36.0611 -83.7969 208° Southwest 397 457 38,000  Level Indianapolis Center
04:23PM 35.9619 -83.8586 207° Southwest 397 457 38,000  Level Indianapolis Center
04:28PM 35.3187 -84.0368 192° South 395 455 38,000  Level FlightAware ADS-B (KDZJ)
04:29PM 35.2022 -84.0648 191° South 398 458 38,000  Level FlightAware ADS-B (KDZJ)
04:30PM 35.1313 -84.0818 192° South 398 458 38,000  Level FlightAware ADS-B (KDZJ)
04:31PM 35.0591 -84.0992 191° South 407 468 38,000  Level FlightAware ADS-B (KDZJ)
04:31PM 34.9831 -84.1171 191° South 407 468 38,000  Level FlightAware ADS-B (KDZJ)
04:32PM 34.9126 -84.1339 191° South 392 451 38,000  Level FlightAware ADS-B (KDZJ)
04:33PM 34.8377 -84.1518 191° South 398 458 38,000  Level FlightAware ADS-B (KDZJ)
04:33PM 34.7744 -84.1669 191° South 398 458 38,000  Level FlightAware ADS-B (KDZJ)
04:34PM 34.7056 -84.1832 191° South 395 455 38,000  Level FlightAware ADS-B (KDZJ)
04:35PM 34.6233 -84.2026 191° South 394 453 38,000  Level FlightAware ADS-B (KDZJ)
04:35PM 34.5564 -84.2184 191° South 395 455 38,000  Level FlightAware ADS-B (KDZJ)
04:36PM 34.4771 -84.2372 191° South 395 455 38,000  Level FlightAware ADS-B (KDZJ)
04:37PM 34.4037 -84.2545 191° South 393 452 38,000  Level FlightAware ADS-B (KDZJ)
04:37PM 34.3334 -84.2710 191° South 379 436 38,000  Level FlightAware ADS-B (KDZJ)
04:38PM 34.2303 -84.2952 191° South 379 436 38,000  Level FlightAware ADS-B (KDZJ)
04:39PM 34.1616 -84.3113 191° South 376 433 38,000  Level FlightAware ADS-B (KDZJ)
04:40PM 34.0930 -84.3272 191° South 365 420 38,000  Level FlightAware ADS-B (KDZJ)
04:40PM 34.0245 -84.3432 191° South 364 419 38,000  Level FlightAware ADS-B (KDZJ)
04:41PM 33.9571 -84.3590 191° South 364 419 38,000  Level FlightAware ADS-B (KDZJ)
04:42PM 33.8794 -84.3792 191° South 376 433 38,000  Level Atlanta Center
04:43PM 33.7833 -84.3986 190° South 378 435 38,000  Level Atlanta Center
04:44PM 33.6831 -84.4233 192° South 378 435 38,000  Level Atlanta Center
04:45PM 33.5681 -84.4378 186° South 378 435 38,000  Level Atlanta Center
04:46PM 33.4722 -84.4347 178° South 383 441 38,000 -180 Level Atlanta Center
04:47PM 33.3617 -84.4342 180° South 388 447 37,700 -420 Descending Atlanta Center
04:48PM 33.2572 -84.4314 179° South 383 441 37,200 -360 Descending Atlanta Center
04:49PM 33.1528 -84.4308 180° South 383 441 37,000 -120 Descending Atlanta Center
04:50PM 33.0483 -84.4278 179° South 383 441 37,000  Level Atlanta Center
04:51PM 32.9442 -84.4275 180° South 383 441 37,000  Level Atlanta Center
04:52PM 32.8356 -84.4269 180° South 383 441 37,000  Level Atlanta Center
04:53PM 32.7250 -84.4192 177° South 378 435 37,000  Level Atlanta Center
04:54PM 32.6186 -84.4186 180° South 378 435 37,000  Level Atlanta Center
04:55PM 32.5100 -84.4156 179° South 384 442 37,000  Level Atlanta Center
04:56PM 32.4036 -84.4128 179° South 384 442 37,000  Level Atlanta Center
04:57PM 32.2969 -84.4122 180° South 384 442 37,000  Level Atlanta Center
04:58PM 32.1886 -84.4069 178° South 384 442 37,000  Level Atlanta Center
04:59PM 32.1117 -84.4058 179° South 384 442 37,000  Level Jacksonville Center
05:00PM 32.0008 -84.4042 179° South 369 425 37,000  Level Jacksonville Center
05:01PM 31.8925 -84.4000 178° South 374 430 37,000  Level Jacksonville Center
05:07PM 31.2395 -84.3111 165° South 446 513 37,000  Level FlightAware ADS-B (KTLH)
05:08PM 31.1260 -84.2766 166° South 449 517 37,000  Level FlightAware ADS-B (KTLH)
05:08PM 31.0747 -84.2613 166° South 451 519 37,000  Level FlightAware ADS-B (KTLH)
05:09PM 30.9950 -84.2378 166° South 454 522 37,000  Level FlightAware ADS-B (KTLH)
05:09PM 30.9335 -84.2196 166° South 457 526 37,000  Level FlightAware ADS-B (KTLH)
05:10PM 30.8728 -84.2017 166° South 461 531 37,000  Level FlightAware ADS-B (KTLH)
05:10PM 30.7906 -84.1776 166° South 461 531 37,000  Level FlightAware ADS-B (KTLH)
05:11PM 30.6905 -84.1481 166° South 464 534 37,000  Level FlightAware ADS-B (KTLH)
05:12PM 30.5981 -84.1210 166° South 469 540 37,000  Level FlightAware ADS-B (KTLH)
05:13PM 30.5060 -84.0940 166° South 472 543 37,000  Level FlightAware ADS-B (KTLH)
05:13PM 30.4343 -84.0730 166° South 471 542 37,000  Level FlightAware ADS-B (KTLH)
05:14PM 30.3553 -84.0500 166° South 471 542 37,000  Level FlightAware ADS-B (KTLH)
05:14PM 30.2782 -84.0274 166° South 470 541 37,000  Level FlightAware ADS-B (KTLH)
05:15PM 30.1857 -84.0005 166° South 470 541 37,000  Level FlightAware ADS-B (KTLH)
05:16PM 30.1219 -83.9820 166° South 466 536 37,000  Level FlightAware ADS-B (KTLH)
05:16PM 30.0487 -83.9609 166° South 469 540 37,000  Level FlightAware ADS-B (KTLH)
05:17PM 29.9450 -83.9331 166° South 469 540 37,000  Level Jacksonville Center
05:18PM 29.8200 -83.8883 163° South 469 540 37,000  Level Jacksonville Center
05:19PM 29.6994 -83.8178 153° Southeast 474 545 37,000  Level Jacksonville Center
05:20PM 29.5811 -83.7428 151° Southeast 479 551 37,000  Level Jacksonville Center
05:21PM 29.4625 -83.6678 151° Southeast 485 558 37,000  Level Jacksonville Center
05:22PM 29.3461 -83.5906 150° Southeast 490 564 37,000  Level Jacksonville Center
05:23PM 29.2275 -83.5161 151° Southeast 490 564 37,000  Level Jacksonville Center
05:24PM 29.1089 -83.4392 150° Southeast 490 564 37,000  Level Jacksonville Center
05:25PM 28.9922 -83.3650 151° Southeast 485 558 37,000  Level Jacksonville Center
05:26PM 28.8736 -83.2886 151° Southeast 485 558 37,000  Level Jacksonville Center
05:27PM 28.7547 -83.2169 152° Southeast 485 558 37,000  Level Jacksonville Center
05:28PM 28.6358 -83.1408 151° Southeast 485 558 37,000  Level Jacksonville Center
05:34PM 27.9555 -82.7139 151° Southeast 479 551 37,000  Level FlightAware ADS-B (KMCO)
05:35PM 27.7692 -82.5919 149° Southeast 483 556 37,000  Level FlightAware ADS-B (KMCO)
05:36PM 27.6949 -82.5422 149° Southeast 484 557 37,000  Level FlightAware ADS-B (KMCO)
05:37PM 27.6117 -82.4869 149° Southeast 486 559 37,000  Level FlightAware ADS-B (KMCO)
05:37PM 27.5401 -82.4393 149° Southeast 488 562 37,000  Level FlightAware ADS-B (KMCO)
05:38PM 27.4612 -82.3869 149° Southeast 489 563 37,000  Level FlightAware ADS-B (KMCO)
05:39PM 27.4002 -82.3466 150° Southeast 490 564 37,000  Level FlightAware ADS-B (KMCO)
05:39PM 27.3045 -82.2833 149° Southeast 491 565 37,000  Level FlightAware ADS-B (KMCO)
05:40PM 27.2487 -82.2465 150° Southeast 492 566 37,000  Level FlightAware ADS-B (KMCO)
05:41PM 27.1265 -82.1659 150° Southeast 494 568 37,000  Level FlightAware ADS-B (KMCO)
05:41PM 27.0521 -82.1170 150° Southeast 492 566 37,000  Level FlightAware ADS-B (KMCO)
05:43PM 26.8923 -82.0120 150° Southeast 490 564 37,000  Level FlightAware ADS-B (KMCO)
05:43PM 26.8207 -81.9652 150° Southeast 492 566 37,000  Level FlightAware ADS-B (KMCO)
05:44PM 26.7769 -81.9368 150° Southeast 493 567 37,000  Level FlightAware ADS-B (KMCO)
05:45PM 26.6952 -81.8834 150° Southeast 494 568 37,000  Level FlightAware ADS-B (KMCO)
05:46PM 26.5754 -81.8055 150° Southeast 494 568 37,000  Level FlightAware ADS-B (KMCO)
05:46PM 26.5164 -81.7740 157° South 487 560 37,000  Level FlightAware ADS-B (KMCO)
05:47PM 26.4479 -81.7463 162° South 484 557 37,000  Level FlightAware ADS-B (KMCO)
05:47PM 26.3614 -81.7125 160° South 483 556 37,000  Level FlightAware ADS-B (KMCO)
05:48PM 26.2582 -81.6727 161° South 482 555 37,000  Level FlightAware ADS-B (KMCO)
05:49PM 26.1925 -81.6478 161° South 482 555 37,000  Level FlightAware ADS-B (KMCO)
05:49PM 26.0912 -81.6095 161° South 480 552 37,000  Level FlightAware ADS-B (KMCO)
05:50PM 26.0047 -81.5769 161° South 479 551 37,000  Level FlightAware ADS-B (KMCO)
05:51PM 25.9198 -81.5449 161° South 478 550 37,000  Level FlightAware ADS-B (KMCO)
05:52PM 25.7696 -81.4885 161° South 479 551 37,000  Level FlightAware ADS-B (KMCO)
05:53PM 25.6874 -81.4577 161° South 481 554 37,000  Level FlightAware ADS-B (KMCO)
05:54PM 25.5708 -81.4169 161° South 479 551 37,000  Level Miami Center
05:55PM 25.4428 -81.3708 162° South 479 551 37,000  Level Miami Center
05:56PM 25.3292 -81.3275 161° South 479 551 37,000 -360 Level Miami Center
05:57PM 25.1783 -81.2717 161° South 479 551 36,300 -900 Descending Miami Center
05:58PM 25.0461 -81.2233 162° South 479 551 35,300 -1,020 Descending Miami Center
05:59PM 24.9203 -81.1731 160° South 479 551 34,300 -1,020 Descending Miami Center
06:00PM 24.7897 -81.1342 165° South 487 560 33,300 -1,560 Descending Miami Center
06:01PM 24.6567 -81.1133 172° South 481 554 31,200 -2,580 Descending Miami Center
06:02PM 24.5383 -81.1619 200° South 460 529 28,100 -2,400 Descending Miami Center
06:03PM 24.4442 -81.2431 218° Southwest 429 494 26,500 -1,320 Descending Miami Center
06:04PM 24.3522 -81.3106 214° Southwest 419 482 25,500 -780 Descending Miami Center
06:05PM 24.2647 -81.3758 214° Southwest 398 458 25,000 -900 Descending Miami Center
06:06PM 24.1792 -81.4411 215° Southwest 392 451 23,700 -1,560 Descending Miami Center
06:07PM 24.0914 -81.5083 215° Southwest 387 445 21,900 -1,800 Descending Miami Center
06:08PM 24.0061 -81.5689 213° Southwest 387 445 20,100 -2,340 Descending Miami Center
06:09PM 23.9292 -81.6272 215° Southwest 387 445 17,300 -2,820 Descending Miami Center
06:11PM 23.7532 -81.7314 208° Southwest  Level FlightAware Approximate
06:18PM 23.1448 -82.2035 212° Southwest  Level FlightAware Approximate
06:19PM 23.0708 -82.2833 231° Southwest  Level FlightAware Approximate
06:20PM 22.9981 -82.3685 223° Southwest  Level FlightAware Approximate
06:21PM 22.9667 -82.4000 223° Southwest  Level FlightAware Approximate
06:22PM 22.9891 -82.4091 223° Southwest  Level Estimated
06:23PM 22.9891 -82.4091 223° Southwest  Level Estimated
06:24PM 22.9891 -82.4091 223° Southwest  Level Estimated
06:25PM 22.9891 -82.4091 223° Southwest  Level Estimated
06:26PM 22.9891 -82.4091 223° Southwest  Level Estimated
06:27PM 22.9891 -82.4091 223° Southwest  Level Estimated
06:28PM 22.9891 -82.4091 223° Southwest  Level Estimated
06:29PM 22.9891 -82.4091 223° Southwest  Level Estimated
06:30PM 22.9891 -82.4091 223° Southwest  Level Estimated
06:31PM 22.9891 -82.4091 223° Southwest  Level Estimated
06:32PM 22.9891 -82.4091 223° Southwest  Level Estimated
06:33PM 22.9891 -82.4091 223° Southwest  Level Estimated
06:34PM 22.9891 -82.4091 223° Southwest  Level Estimated
06:35PM 22.9891 -82.4091 223° Southwest  Level Estimated
06:36PM 22.9891 -82.4091 223° Southwest  Level Estimated
06:37PM 22.9891 -82.4091 223° Southwest  Level Estimated
06:38PM 22.9891 -82.4091 223° Southwest  Level Estimated
06:39PM 22.9891 -82.4091 223° Southwest  Level Estimated
06:40PM 22.9891 -82.4091 223° Southwest  Level Estimated
06:41PM 22.9891 -82.4091 223° Southwest  Level Estimated